createdAt,value
2023-02-14T00:00:53.804Z,74.25
2023-02-14T00:04:00.429Z,74.67
2023-02-14T00:07:01.805Z,74.25
2023-02-14T00:10:03.551Z,74.21
2023-02-14T00:13:05.038Z,73.94
2023-02-14T00:16:06.932Z,75.23
2023-02-14T00:19:11.030Z,76.26
2023-02-14T00:22:12.808Z,75.55
2023-02-14T00:25:14.786Z,74.94
2023-02-14T00:28:16.190Z,74.63
2023-02-14T00:31:17.770Z,76.21
2023-02-14T00:34:19.776Z,75.27
2023-02-14T00:37:21.635Z,73.60
2023-02-14T00:40:23.126Z,75.29
2023-02-14T00:43:24.497Z,75.11
2023-02-14T00:46:27.280Z,75.12
2023-02-14T00:49:30.160Z,74.31
2023-02-14T00:52:33.576Z,73.58
2023-02-14T00:55:34.964Z,74.31
2023-02-14T00:58:36.466Z,74.06
2023-02-14T01:01:38.007Z,74.33
2023-02-14T01:04:39.480Z,73.71
2023-02-14T01:07:41.297Z,74.34
2023-02-14T01:10:45.750Z,74.30
2023-02-14T01:13:48.823Z,74.15
2023-02-14T01:16:51.257Z,73.57
2023-02-14T01:19:53.275Z,73.25
2023-02-14T01:22:54.761Z,73.36
2023-02-14T01:25:56.151Z,73.59
2023-02-14T01:28:57.648Z,73.64
2023-02-14T01:31:59.280Z,72.81
2023-02-14T01:35:01.155Z,72.72
2023-02-14T01:38:02.741Z,72.53
2023-02-14T01:41:04.276Z,72.64
2023-02-14T01:44:14.837Z,73.20
2023-02-14T01:47:17.238Z,73.44
2023-02-14T01:50:39.607Z,73.33
2023-02-14T01:53:41.376Z,72.94
2023-02-14T01:56:48.002Z,73.19
2023-02-14T01:59:55.837Z,73.28
2023-02-14T02:02:59.754Z,73.21
2023-02-14T02:06:13.663Z,72.82
2023-02-14T02:09:20.026Z,71.96
2023-02-14T02:12:22.797Z,72.91
2023-02-14T02:15:29.292Z,73.09
2023-02-14T02:18:57.141Z,72.00
2023-02-14T02:22:08.526Z,71.94
2023-02-14T02:25:31.641Z,72.13
2023-02-14T02:29:01.911Z,72.33
2023-02-14T02:32:23.032Z,71.79
2023-02-14T02:35:41.824Z,73.12
2023-02-14T02:39:18.867Z,73.21
2023-02-14T02:42:42.119Z,72.71
2023-02-14T02:46:14.715Z,72.01
2023-02-14T02:49:45.163Z,72.28
2023-02-14T02:53:18.600Z,72.84
2023-02-14T02:56:45.481Z,73.52
2023-02-14T02:59:47.526Z,73.89
2023-02-14T03:03:11.104Z,73.72
2023-02-14T03:06:12.580Z,73.33
2023-02-14T03:09:20.167Z,72.43
2023-02-14T03:12:38.161Z,72.19
2023-02-14T03:16:08.693Z,73.15
2023-02-14T03:19:55.224Z,72.96
2023-02-14T03:22:59.370Z,72.83
2023-02-14T03:26:39.488Z,72.68
2023-02-14T03:29:49.165Z,72.65
2023-02-14T03:33:05.492Z,72.35
2023-02-14T03:36:14.445Z,72.83
2023-02-14T03:39:28.171Z,74.07
2023-02-14T03:42:39.672Z,72.77
2023-02-14T03:45:51.487Z,72.88
2023-02-14T03:48:56.476Z,72.97
2023-02-14T03:52:01.048Z,73.37
2023-02-14T03:55:06.857Z,72.33
2023-02-14T03:58:19.236Z,72.70
2023-02-14T04:01:25.707Z,72.00
2023-02-14T04:04:30.714Z,72.42
2023-02-14T04:07:43.219Z,72.54
2023-02-14T04:10:44.574Z,72.26
2023-02-14T04:13:46.030Z,72.25
2023-02-14T04:17:06.107Z,72.57
2023-02-14T04:20:07.897Z,72.55
2023-02-14T04:23:09.363Z,71.99
2023-02-14T04:26:11.262Z,72.99
2023-02-14T04:29:12.678Z,73.02
2023-02-14T04:32:18.025Z,72.99
2023-02-14T04:35:19.464Z,72.63
2023-02-14T04:38:21.015Z,72.45
2023-02-14T04:41:22.449Z,71.67
2023-02-14T04:44:24.121Z,70.98
2023-02-14T04:47:25.943Z,71.51
2023-02-14T04:50:27.494Z,72.95
2023-02-14T04:53:28.908Z,73.01
2023-02-14T04:56:30.406Z,73.81
2023-02-14T04:59:31.847Z,73.70
2023-02-14T05:02:33.356Z,73.69
2023-02-14T05:05:34.756Z,72.74
2023-02-14T05:08:36.252Z,72.36
2023-02-14T05:11:37.792Z,72.71
2023-02-14T05:14:39.202Z,72.73
2023-02-14T05:17:40.606Z,72.50
2023-02-14T05:20:42.057Z,72.45
2023-02-14T05:23:44.011Z,72.07
2023-02-14T05:26:45.443Z,71.77
2023-02-14T05:29:46.973Z,72.23
2023-02-14T05:32:48.380Z,72.49
2023-02-14T05:35:49.835Z,72.33
2023-02-14T05:38:51.328Z,72.37
2023-02-14T05:41:52.714Z,72.38
2023-02-14T05:44:54.120Z,73.03
2023-02-14T05:47:55.534Z,72.88
2023-02-14T05:50:56.960Z,72.84
2023-02-14T05:53:59.951Z,72.86
2023-02-14T05:57:01.401Z,72.37
2023-02-14T06:00:06.418Z,72.66
2023-02-14T06:03:13.698Z,72.24
2023-02-14T06:06:15.148Z,72.63
2023-02-14T06:09:16.661Z,72.27
2023-02-14T06:12:18.165Z,72.56
2023-02-14T06:15:20.809Z,72.32
2023-02-14T06:18:22.224Z,72.74
2023-02-14T06:21:23.681Z,71.70
2023-02-14T06:24:25.145Z,72.18
2023-02-14T06:27:26.548Z,72.35
2023-02-14T06:30:28.403Z,73.00
2023-02-14T06:33:29.881Z,73.25
2023-02-14T06:36:31.290Z,73.51
2023-02-14T06:39:32.818Z,72.26
2023-02-14T06:42:34.256Z,72.35
2023-02-14T06:45:35.710Z,73.05
2023-02-14T06:48:37.186Z,72.96
2023-02-14T06:51:38.586Z,72.65
2023-02-14T06:54:40.547Z,71.76
2023-02-14T06:57:42.042Z,71.98
2023-02-14T07:00:43.610Z,71.94
2023-02-14T07:03:45.166Z,72.66
2023-02-14T07:06:46.781Z,72.72
2023-02-14T07:09:48.315Z,72.76
2023-02-14T07:12:49.745Z,72.27
2023-02-14T07:15:51.435Z,72.17
2023-02-14T07:18:52.916Z,73.31
2023-02-14T07:21:54.368Z,73.62
2023-02-14T07:24:55.771Z,73.49
2023-02-14T07:27:57.266Z,73.71
2023-02-14T07:31:02.019Z,73.80
2023-02-14T07:34:03.719Z,72.92
2023-02-14T07:37:05.123Z,73.02
2023-02-14T07:40:12.493Z,72.73
2023-02-14T07:43:15.895Z,72.74
2023-02-14T07:46:18.236Z,73.57
2023-02-14T07:49:19.692Z,74.74
2023-02-14T07:52:21.354Z,73.60
2023-02-14T07:55:25.080Z,73.42
2023-02-14T07:58:26.570Z,72.80
2023-02-14T08:01:28.035Z,73.56
2023-02-14T08:04:31.190Z,72.76
2023-02-14T08:07:33.590Z,73.06
2023-02-14T08:10:35.179Z,72.51
2023-02-14T08:13:37.071Z,72.57
2023-02-14T08:16:39.702Z,73.28
2023-02-14T08:19:41.099Z,73.36
2023-02-14T08:22:42.526Z,72.97
2023-02-14T08:25:44.066Z,72.40
2023-02-14T08:28:45.599Z,71.88
2023-02-14T08:31:47.575Z,71.79
2023-02-14T08:34:49.045Z,71.70
2023-02-14T08:37:50.456Z,71.36
2023-02-14T08:40:51.951Z,72.51
2023-02-14T08:43:53.492Z,73.44
2023-02-14T08:46:55.029Z,72.99
2023-02-14T08:49:56.522Z,73.15
2023-02-14T08:52:58.054Z,72.87
2023-02-14T08:56:08.757Z,72.10
2023-02-14T08:59:10.236Z,71.70
2023-02-14T09:02:13.622Z,71.80
2023-02-14T09:05:15.130Z,72.71
2023-02-14T09:08:16.646Z,72.32
2023-02-14T09:11:22.067Z,72.49
2023-02-14T09:14:24.268Z,72.43
2023-02-14T09:17:25.698Z,71.75
2023-02-14T09:20:27.217Z,72.25
2023-02-14T09:23:28.661Z,71.26
2023-02-14T09:26:30.170Z,71.37
2023-02-14T09:29:32.437Z,71.23
2023-02-14T09:32:33.980Z,71.83
2023-02-14T09:35:35.630Z,72.33
2023-02-14T09:38:37.185Z,72.85
2023-02-14T09:41:53.925Z,72.15
2023-02-14T09:45:05.464Z,71.10
2023-02-14T09:48:15.631Z,71.97
2023-02-14T09:51:25.492Z,72.17
2023-02-14T09:54:29.476Z,72.14
2023-02-14T09:57:59.055Z,71.40
2023-02-14T10:01:19.219Z,72.08
2023-02-14T10:04:29.745Z,71.64
2023-02-14T10:07:51.579Z,71.57
2023-02-14T10:11:05.697Z,70.92
2023-02-14T10:14:27.930Z,71.69
2023-02-14T10:17:40.762Z,71.57
2023-02-14T10:20:46.416Z,71.90
2023-02-14T10:23:55.675Z,70.82
2023-02-14T10:30:23.581Z,70.80
2023-02-14T10:33:31.180Z,71.12
2023-02-14T10:36:41.309Z,71.43
2023-02-14T10:40:07.102Z,71.84
2023-02-14T10:43:15.331Z,71.36
2023-02-14T10:46:24.064Z,71.04
2023-02-14T10:49:34.384Z,72.42
2023-02-14T10:52:44.169Z,72.31
2023-02-14T10:56:02.023Z,71.73
2023-02-14T10:59:21.847Z,72.75
2023-02-14T11:02:31.153Z,72.89
2023-02-14T11:05:46.625Z,72.41
2023-02-14T11:08:48.210Z,72.15
2023-02-14T11:11:59.153Z,72.15
2023-02-14T11:15:24.555Z,71.66
2023-02-14T11:18:32.944Z,71.00
2023-02-14T11:21:40.131Z,71.35
2023-02-14T11:24:42.285Z,71.66
2023-02-14T11:27:50.125Z,72.31
2023-02-14T11:30:54.392Z,73.05
2023-02-14T11:33:56.701Z,73.21
2023-02-14T11:36:58.350Z,72.48
2023-02-14T11:40:01.632Z,72.43
2023-02-14T11:43:14.656Z,72.29
2023-02-14T11:46:19.492Z,71.70
2023-02-14T11:49:31.498Z,72.32
2023-02-14T11:52:40.292Z,72.85
2023-02-14T11:55:41.747Z,72.63
2023-02-14T11:58:57.708Z,71.92
2023-02-14T12:02:04.177Z,71.61
2023-02-14T12:05:15.272Z,71.87
2023-02-14T12:08:25.022Z,71.47
2023-02-14T12:11:27.263Z,71.50
2023-02-14T12:14:31.601Z,72.43
2023-02-14T12:17:37.518Z,72.25
2023-02-14T12:20:49.011Z,72.63
2023-02-14T12:23:50.360Z,72.15
2023-02-14T12:27:07.132Z,71.79
2023-02-14T12:30:22.077Z,72.25
2023-02-14T12:33:25.985Z,72.15
2023-02-14T12:36:46.241Z,73.17
2023-02-14T12:39:50.674Z,71.65
2023-02-14T12:43:17.666Z,72.51
2023-02-14T12:46:34.205Z,72.66
2023-02-14T12:49:49.405Z,72.13
2023-02-14T12:53:30.861Z,72.35
2023-02-14T12:56:44.712Z,72.24
2023-02-14T13:00:07.234Z,70.82
2023-02-14T13:03:27.102Z,71.11
2023-02-14T13:06:35.934Z,71.53
2023-02-14T13:09:50.860Z,71.24
2023-02-14T13:13:06.336Z,71.07
2023-02-14T13:16:12.980Z,71.51
2023-02-14T13:19:42.393Z,72.47
2023-02-14T13:22:44.058Z,73.91
2023-02-14T13:25:51.717Z,73.27
2023-02-14T13:29:01.646Z,72.44
2023-02-14T13:32:04.539Z,71.34
2023-02-14T13:35:08.065Z,71.56
2023-02-14T13:38:15.543Z,71.95
2023-02-14T13:41:18.830Z,72.70
2023-02-14T13:44:47.876Z,72.64
2023-02-14T13:48:01.694Z,73.17
2023-02-14T13:51:10.511Z,72.42
2023-02-14T13:54:30.174Z,72.48
2023-02-14T13:57:34.873Z,71.81
2023-02-14T14:00:37.897Z,72.02
2023-02-14T14:03:39.309Z,73.49
2023-02-14T14:07:02.599Z,73.09
2023-02-14T14:10:05.882Z,75.01
2023-02-14T14:13:07.393Z,74.75
2023-02-14T14:16:24.058Z,75.22
2023-02-14T14:19:25.626Z,74.89
2023-02-14T14:22:28.659Z,75.08
2023-02-14T14:25:39.449Z,75.16
2023-02-14T14:28:46.255Z,74.43
2023-02-14T14:31:51.273Z,74.30
2023-02-14T14:35:13.020Z,73.71
2023-02-14T14:38:14.406Z,74.63
2023-02-14T14:41:16.101Z,74.99
2023-02-14T14:44:17.840Z,74.44
2023-02-14T14:47:24.337Z,74.16
2023-02-14T14:50:32.144Z,74.28
2023-02-14T14:53:48.750Z,75.15
2023-02-14T14:57:01.488Z,75.37
2023-02-14T15:00:09.325Z,75.50
2023-02-14T15:03:11.425Z,74.88
2023-02-14T15:06:22.329Z,75.16
2023-02-14T15:09:33.704Z,74.96
2023-02-14T15:12:53.620Z,74.57
2023-02-14T15:15:55.216Z,73.84
2023-02-14T15:19:00.605Z,73.54
2023-02-14T15:22:05.327Z,74.11
2023-02-14T15:25:12.780Z,73.60
2023-02-14T15:28:32.422Z,73.17
2023-02-14T15:31:39.490Z,74.25
2023-02-14T15:34:41.133Z,73.46
2023-02-14T15:37:44.234Z,73.50
2023-02-14T15:40:45.907Z,73.49
2023-02-14T15:43:53.756Z,73.47
2023-02-14T15:47:05.600Z,73.75
2023-02-14T15:50:19.084Z,73.83
2023-02-14T15:53:20.564Z,74.53
2023-02-14T15:56:26.073Z,73.86
2023-02-14T15:59:33.369Z,73.51
2023-02-14T16:02:38.090Z,74.69
2023-02-14T16:05:47.000Z,74.29
2023-02-14T16:08:54.899Z,74.30
2023-02-14T16:11:56.685Z,74.71
2023-02-14T16:15:18.932Z,75.06
2023-02-14T16:18:49.887Z,76.08
2023-02-14T16:21:57.422Z,75.05
2023-02-14T16:24:59.263Z,74.99
2023-02-14T16:28:00.658Z,74.75
2023-02-14T16:31:05.608Z,76.40
2023-02-14T16:34:11.893Z,75.96
2023-02-14T16:37:46.542Z,76.01
2023-02-14T16:40:51.725Z,75.30
2023-02-14T16:43:53.987Z,74.36
2023-02-14T16:46:55.385Z,74.20
2023-02-14T16:49:56.790Z,74.50
2023-02-14T16:52:58.515Z,75.72
2023-02-14T16:56:00.140Z,75.45
2023-02-14T16:59:01.607Z,74.92
2023-02-14T17:02:03.048Z,75.13
2023-02-14T17:05:04.985Z,74.84
2023-02-14T17:08:09.475Z,74.56
2023-02-14T17:11:11.216Z,75.03
2023-02-14T17:14:17.441Z,75.45
2023-02-14T17:17:19.611Z,75.01
2023-02-14T17:20:21.850Z,75.65
2023-02-14T17:23:24.278Z,75.24
2023-02-14T17:26:25.626Z,75.64
2023-02-14T17:29:27.028Z,75.58
2023-02-14T17:32:28.485Z,75.54
2023-02-14T17:35:30.837Z,75.32
2023-02-14T17:38:33.151Z,75.01
2023-02-14T17:41:34.510Z,75.27
2023-02-14T17:44:37.383Z,74.89
2023-02-14T17:47:40.875Z,75.27
2023-02-14T17:50:42.411Z,75.81
2023-02-14T17:53:43.883Z,75.73
2023-02-14T17:56:45.313Z,75.16
2023-02-14T17:59:47.064Z,74.91
2023-02-14T18:02:49.188Z,76.07
2023-02-14T18:05:51.891Z,75.11
2023-02-14T18:08:56.891Z,75.16
2023-02-14T18:11:58.631Z,75.87
2023-02-14T18:15:00.122Z,75.43
2023-02-14T18:18:01.539Z,74.81
2023-02-14T18:21:05.564Z,75.98
2023-02-14T18:24:07.351Z,75.81
2023-02-14T18:27:08.780Z,75.13
2023-02-14T18:30:10.820Z,75.87
2023-02-14T18:33:13.118Z,75.88
2023-02-14T18:36:18.005Z,74.81
2023-02-14T18:39:20.100Z,74.75
2023-02-14T18:42:21.655Z,74.71
2023-02-14T18:45:23.189Z,74.96
2023-02-14T18:48:24.689Z,74.58
2023-02-14T18:51:29.523Z,74.30
2023-02-14T18:54:30.906Z,74.44
2023-02-14T18:57:36.203Z,75.85
2023-02-14T19:00:37.749Z,75.55
2023-02-14T19:03:40.091Z,75.52
2023-02-14T19:06:42.842Z,75.57
2023-02-14T19:09:44.451Z,75.50
2023-02-14T19:12:45.899Z,74.45
2023-02-14T19:15:47.757Z,74.42
2023-02-14T19:18:55.169Z,74.17
2023-02-14T19:22:00.468Z,74.18
2023-02-14T19:25:02.214Z,75.25
2023-02-14T19:28:06.562Z,76.18
2023-02-14T19:31:09.167Z,75.19
2023-02-14T19:34:19.751Z,74.32
2023-02-14T19:37:21.273Z,75.35
2023-02-14T19:40:23.616Z,75.82
2023-02-14T19:43:25.368Z,75.49
2023-02-14T19:46:28.773Z,74.88
2023-02-14T19:49:31.927Z,74.73
2023-02-14T19:52:33.554Z,74.96
2023-02-14T19:55:35.186Z,74.74
2023-02-14T19:58:37.186Z,74.43
2023-02-14T20:01:46.875Z,74.48
2023-02-14T20:04:48.407Z,74.00
2023-02-14T20:07:56.111Z,73.99
2023-02-14T20:10:58.197Z,73.80
2023-02-14T20:14:00.973Z,72.97
2023-02-14T20:17:05.291Z,73.57
2023-02-14T20:20:08.310Z,74.54
2023-02-14T20:23:09.830Z,74.02
2023-02-14T20:26:13.331Z,74.53
2023-02-14T20:29:15.994Z,74.77
2023-02-14T20:32:18.032Z,74.63
2023-02-14T20:35:19.494Z,74.50
2023-02-14T20:38:21.494Z,74.70
2023-02-14T20:41:23.675Z,74.77
2023-02-14T20:44:25.287Z,74.14
2023-02-14T20:47:26.735Z,74.24
2023-02-14T20:50:28.188Z,74.21
2023-02-14T20:53:31.524Z,74.34
2023-02-14T20:56:33.048Z,74.07
2023-02-14T20:59:34.435Z,73.96
2023-02-14T21:02:35.877Z,74.07
2023-02-14T21:05:37.301Z,74.60
2023-02-14T21:08:39.580Z,75.05
2023-02-14T21:11:41.035Z,75.15
2023-02-14T21:14:42.501Z,74.88
2023-02-14T21:17:44.178Z,75.20
2023-02-14T21:20:45.818Z,75.90
2023-02-14T21:23:51.909Z,74.87
2023-02-14T21:26:53.388Z,74.44
2023-02-14T21:29:55.152Z,74.55
2023-02-14T21:32:57.542Z,74.94
2023-02-14T21:36:15.372Z,74.99
2023-02-14T21:39:16.823Z,74.42
2023-02-14T21:42:18.641Z,73.83
2023-02-14T21:45:39.046Z,74.06
2023-02-14T21:48:59.412Z,73.61
2023-02-14T21:52:02.042Z,73.78
2023-02-14T21:55:03.547Z,73.79
2023-02-14T21:58:04.958Z,74.23
2023-02-14T22:01:07.413Z,74.41
2023-02-14T22:04:09.863Z,74.48
2023-02-14T22:07:11.393Z,74.60
2023-02-14T22:10:13.788Z,75.07
2023-02-14T22:13:15.189Z,75.01
2023-02-14T22:16:18.824Z,74.50
2023-02-14T22:19:20.514Z,75.09
2023-02-14T22:22:22.084Z,74.97
2023-02-14T22:25:24.991Z,75.03
2023-02-14T22:28:26.413Z,76.33
2023-02-14T22:31:32.501Z,75.81
2023-02-14T22:34:34.429Z,74.73
2023-02-14T22:37:35.809Z,74.98
2023-02-14T22:40:37.242Z,74.77
2023-02-14T22:43:39.564Z,75.21
2023-02-14T22:46:40.979Z,74.99
2023-02-14T22:49:42.559Z,75.13
2023-02-14T22:52:44.118Z,74.11
2023-02-14T22:55:45.583Z,74.01
2023-02-14T22:58:47.328Z,74.13
2023-02-14T23:01:50.859Z,74.12
2023-02-14T23:04:52.362Z,75.06
2023-02-14T23:07:53.910Z,75.17
2023-02-14T23:10:55.286Z,74.86
2023-02-14T23:14:16.562Z,74.52
2023-02-14T23:17:24.289Z,74.63
2023-02-14T23:20:46.014Z,75.16
2023-02-14T23:23:47.473Z,74.73
2023-02-14T23:26:49.383Z,74.32
2023-02-14T23:29:50.834Z,73.63
2023-02-14T23:32:52.303Z,74.24
2023-02-14T23:35:54.073Z,74.17
2023-02-14T23:38:55.684Z,74.42
2023-02-14T23:41:57.117Z,73.93
2023-02-14T23:45:21.472Z,74.01
2023-02-14T23:48:22.986Z,74.35
2023-02-14T23:51:24.487Z,74.81
2023-02-14T23:54:26.191Z,75.33
2023-02-14T23:57:28.652Z,75.62
